Time;durP1;ratioP1;P1;durP2;ratioP2;P2;SDS_P1;SDS_P2;PMS_P1;PMS_P2;Temp;Humidity;BMP_temperature;BMP_pressure;BME280_temperature;BME280_humidity;BME280_pressure;Samples;Min_cycle;Max_cycle;Signal;HPM_P1;HPM_P2
2021/06/23 00:00:33;;;;;;;42.47;34.83;;;;;;;;;;5137247;28;20464;-54
2021/06/23 00:03:02;;;;;;;45.03;36.20;;;;;;;;;;5135172;28;20478;-53
2021/06/23 00:05:31;;;;;;;45.53;33.40;;;;;;;;;;5136471;28;20494;-58
2021/06/23 00:07:58;;;;;;;43.10;34.37;;;;;;;;;;5137508;28;20446;-56
2021/06/23 00:10:26;;;;;;;43.50;35.63;;;;;;;;;;5137339;28;20430;-54
2021/06/23 00:13:05;;;;;;;44.20;34.87;;;;;;;;;;5126617;28;20446;-59
2021/06/23 00:15:33;;;;;;;41.63;33.60;;;;;;;;;;5135857;28;20446;-58
2021/06/23 00:18:00;;;;;;;43.00;35.70;;;;;;;;;;5132700;28;20492;-59
2021/06/23 00:20:29;;;;;;;45.83;37.00;;;;;;;;;;5130807;28;20465;-57
2021/06/23 00:22:56;;;;;;;44.73;34.70;;;;;;;;;;5117189;28;20687;-51
2021/06/23 00:25:26;;;;;;;44.80;34.77;;;;;;;;;;5131280;28;20471;-49
2021/06/23 00:27:53;;;;;;;46.23;36.40;;;;;;;;;;5102248;28;20465;-58
2021/06/23 00:30:21;;;;;;;50.33;34.50;;;;;;;;;;5137061;28;20449;-55
2021/06/23 00:32:56;;;;;;;42.97;32.73;;;;;;;;;;5133070;28;20494;-56
2021/06/23 00:35:23;;;;;;;43.50;34.17;;;;;;;;;;5116576;28;20447;-53
2021/06/23 00:37:52;;;;;;;45.97;34.17;;;;;;;;;;5148468;27;20470;-56
2021/06/23 00:40:22;;;;;;;44.03;31.90;;;;;;;;;;5117163;28;20484;-52
2021/06/23 00:42:50;;;;;;;37.80;31.57;;;;;;;;;;5136358;28;20503;-51
2021/06/23 00:45:17;;;;;;;41.50;33.50;;;;;;;;;;5136733;28;20498;-57
2021/06/23 00:47:46;;;;;;;39.77;32.37;;;;;;;;;;5129873;28;20510;-56
2021/06/23 00:50:15;;;;;;;45.10;35.40;;;;;;;;;;5137975;27;20469;-56
2021/06/23 00:52:42;;;;;;;44.60;35.00;;;;;;;;;;5147639;27;20450;-55
2021/06/23 00:55:21;;;;;;;45.03;33.50;;;;;;;;;;5137122;28;20439;-53
2021/06/23 00:57:50;;;;;;;38.57;31.97;;;;;;;;;;5136714;28;20450;-55
2021/06/23 01:00:18;;;;;;;38.17;32.00;;;;;;;;;;5137301;28;20482;-52
2021/06/23 01:03:22;;;;;;;40.50;32.00;;;;;;;;;;5136384;28;20488;-56
2021/06/23 01:05:50;;;;;;;43.23;32.00;;;;;;;;;;5137046;28;20473;-54
2021/06/23 01:08:17;;;;;;;38.37;30.50;;;;;;;;;;5136697;28;20453;-55
2021/06/23 01:10:46;;;;;;;49.70;31.10;;;;;;;;;;5136944;28;20458;-54
2021/06/23 01:13:33;;;;;;;45.20;32.60;;;;;;;;;;5116006;28;20459;-56
2021/06/23 01:16:04;;;;;;;41.40;31.93;;;;;;;;;;5130259;28;20458;-54
2021/06/23 01:18:34;;;;;;;45.23;30.83;;;;;;;;;;5140188;28;20439;-56
2021/06/23 01:21:01;;;;;;;41.97;30.50;;;;;;;;;;5140780;28;20442;-54
2021/06/23 01:23:31;;;;;;;36.77;31.20;;;;;;;;;;5140963;28;20687;-57
2021/06/23 01:25:58;;;;;;;41.47;30.37;;;;;;;;;;5138622;28;20481;-55
2021/06/23 01:28:26;;;;;;;39.43;30.53;;;;;;;;;;5137294;27;20867;-52
2021/06/23 01:31:00;;;;;;;33.43;27.80;;;;;;;;;;5140722;28;20435;-57
2021/06/23 01:33:29;;;;;;;34.40;27.90;;;;;;;;;;5127730;28;20483;-56
2021/06/23 01:35:57;;;;;;;41.97;30.67;;;;;;;;;;5126716;28;20443;-55
2021/06/23 01:38:25;;;;;;;38.63;30.77;;;;;;;;;;5120073;28;20530;-54
2021/06/23 01:40:54;;;;;;;38.73;31.20;;;;;;;;;;5119982;28;20462;-54
2021/06/23 01:43:22;;;;;;;37.90;28.00;;;;;;;;;;5136369;28;20479;-51
2021/06/23 01:45:54;;;;;;;40.13;29.43;;;;;;;;;;5132620;28;20660;-55
2021/06/23 01:48:22;;;;;;;42.33;30.60;;;;;;;;;;5140203;28;20529;-57
2021/06/23 01:50:54;;;;;;;39.80;28.10;;;;;;;;;;5130578;28;20447;-52
2021/06/23 01:53:21;;;;;;;37.90;29.80;;;;;;;;;;5136237;28;20449;-57
2021/06/23 01:55:49;;;;;;;35.80;30.93;;;;;;;;;;5139386;28;20521;-51
2021/06/23 01:58:43;;;;;;;39.73;29.07;;;;;;;;;;5119649;28;20491;-53
2021/06/23 02:01:17;;;;;;;45.27;30.43;;;;;;;;;;5137093;28;20458;-59
2021/06/23 02:03:53;;;;;;;39.73;30.37;;;;;;;;;;5139078;28;20525;-59
2021/06/23 02:06:30;;;;;;;33.70;28.73;;;;;;;;;;5128875;28;20482;-60
2021/06/23 02:09:03;;;;;;;39.93;29.50;;;;;;;;;;5118891;28;20458;-57
2021/06/23 02:11:45;;;;;;;40.10;30.33;;;;;;;;;;5137107;28;20466;-58
2021/06/23 02:14:31;;;;;;;46.63;28.93;;;;;;;;;;5140174;28;20493;-54
2021/06/23 02:17:02;;;;;;;36.63;27.47;;;;;;;;;;5125528;28;20475;-54
2021/06/23 02:20:02;;;;;;;36.87;28.00;;;;;;;;;;5118912;28;20447;-49
2021/06/23 02:22:30;;;;;;;36.17;26.00;;;;;;;;;;5119122;28;20484;-61
2021/06/23 02:25:05;;;;;;;33.03;25.17;;;;;;;;;;5119532;28;20462;-62
2021/06/23 02:27:44;;;;;;;29.93;25.70;;;;;;;;;;5118425;28;20492;-57
2021/06/23 02:30:13;;;;;;;31.87;25.70;;;;;;;;;;5118689;28;20451;-56
2021/06/23 02:32:46;;;;;;;30.20;23.57;;;;;;;;;;5133993;28;20455;-54
2021/06/23 02:35:13;;;;;;;30.77;24.27;;;;;;;;;;5145670;27;20489;-59
2021/06/23 02:37:41;;;;;;;36.90;25.00;;;;;;;;;;5159304;27;20572;-59
2021/06/23 02:40:18;;;;;;;28.20;23.13;;;;;;;;;;5136992;28;20525;-50
2021/06/23 02:42:45;;;;;;;30.07;24.13;;;;;;;;;;5138924;28;20485;-55
2021/06/23 02:45:13;;;;;;;29.90;22.47;;;;;;;;;;5137892;28;20518;-59
2021/06/23 02:47:42;;;;;;;31.20;20.17;;;;;;;;;;5142184;27;20486;-61
2021/06/23 02:50:10;;;;;;;30.77;21.17;;;;;;;;;;5139634;28;20458;-55
2021/06/23 02:52:40;;;;;;;31.83;22.67;;;;;;;;;;5138987;27;20494;-57
2021/06/23 02:55:08;;;;;;;27.20;20.90;;;;;;;;;;5138872;28;20446;-57
2021/06/23 02:57:36;;;;;;;31.60;21.63;;;;;;;;;;5138699;28;20495;-57
2021/06/23 03:00:16;;;;;;;27.40;20.27;;;;;;;;;;5138505;28;20450;-58
2021/06/23 03:02:45;;;;;;;27.37;21.37;;;;;;;;;;5134055;28;20482;-57
2021/06/23 03:05:13;;;;;;;25.63;20.50;;;;;;;;;;5138866;28;20470;-60
2021/06/23 03:08:14;;;;;;;24.17;19.80;;;;;;;;;;5138392;28;20459;-59
2021/06/23 03:10:43;;;;;;;23.23;19.53;;;;;;;;;;5142918;27;20452;-58
2021/06/23 03:13:10;;;;;;;25.27;20.57;;;;;;;;;;5138929;28;20442;-57
2021/06/23 03:15:39;;;;;;;22.50;18.87;;;;;;;;;;5138998;28;20486;-61
2021/06/23 03:18:08;;;;;;;28.27;18.27;;;;;;;;;;5127625;28;20451;-56
2021/06/23 03:20:36;;;;;;;24.17;19.50;;;;;;;;;;5118085;28;20458;-57
2021/06/23 03:23:06;;;;;;;23.73;19.13;;;;;;;;;;5133919;28;20462;-54
2021/06/23 03:25:33;;;;;;;26.43;19.90;;;;;;;;;;5138421;28;20454;-57
2021/06/23 03:28:01;;;;;;;22.30;18.93;;;;;;;;;;5125659;28;20470;-57
2021/06/23 03:30:30;;;;;;;25.80;20.40;;;;;;;;;;5119619;28;20459;-55
2021/06/23 03:32:57;;;;;;;28.33;19.17;;;;;;;;;;5137722;28;20908;-60
2021/06/23 03:35:27;;;;;;;25.10;18.80;;;;;;;;;;5135799;28;20483;-62
2021/06/23 03:37:56;;;;;;;29.80;19.50;;;;;;;;;;5129196;28;20495;-57
2021/06/23 03:40:24;;;;;;;22.70;18.60;;;;;;;;;;5136285;28;20482;-57
2021/06/23 03:42:51;;;;;;;19.57;16.57;;;;;;;;;;5137442;28;20458;-57
2021/06/23 03:45:24;;;;;;;26.40;17.57;;;;;;;;;;5136868;28;20727;-59
2021/06/23 03:47:52;;;;;;;19.43;17.07;;;;;;;;;;5128822;28;20490;-59
2021/06/23 03:50:20;;;;;;;22.70;18.87;;;;;;;;;;5124705;28;20491;-59
2021/06/23 03:53:03;;;;;;;23.97;18.27;;;;;;;;;;5117151;28;20479;-61
2021/06/23 03:55:30;;;;;;;25.50;17.70;;;;;;;;;;5136825;28;20458;-58
2021/06/23 03:57:58;;;;;;;25.67;17.80;;;;;;;;;;5119950;28;20455;-61
2021/06/23 04:00:29;;;;;;;23.13;16.33;;;;;;;;;;5136754;27;20488;-54
2021/06/23 04:02:57;;;;;;;25.20;17.17;;;;;;;;;;5137777;27;20482;-55
2021/06/23 04:05:25;;;;;;;21.27;16.93;;;;;;;;;;5137266;28;20459;-59
2021/06/23 04:08:09;;;;;;;25.93;18.23;;;;;;;;;;5138098;28;20489;-57
2021/06/23 04:10:37;;;;;;;24.47;17.50;;;;;;;;;;5137879;28;20617;-57
2021/06/23 04:13:04;;;;;;;24.67;16.70;;;;;;;;;;5137695;28;20446;-53
2021/06/23 04:15:32;;;;;;;23.60;17.37;;;;;;;;;;5132467;28;20472;-56
2021/06/23 04:18:00;;;;;;;22.23;17.70;;;;;;;;;;5125320;28;20719;-58
2021/06/23 04:20:28;;;;;;;23.47;18.20;;;;;;;;;;5116917;28;20465;-59
2021/06/23 04:23:32;;;;;;;27.03;17.70;;;;;;;;;;5132914;28;20557;-54
2021/06/23 04:26:01;;;;;;;20.87;17.40;;;;;;;;;;5127267;28;20486;-57
2021/06/23 04:28:28;;;;;;;20.63;17.40;;;;;;;;;;5122669;28;20475;-52
2021/06/23 04:33:59;;;;;;;22.07;17.20;;;;;;;;;;5126737;28;20491;-59
2021/06/23 04:36:27;;;;;;;20.33;16.23;;;;;;;;;;5136153;28;20458;-55
2021/06/23 04:39:08;;;;;;;24.60;17.10;;;;;;;;;;5137796;28;20487;-60
2021/06/23 04:41:37;;;;;;;26.13;18.30;;;;;;;;;;5157151;27;20418;-59
2021/06/23 04:44:10;;;;;;;22.10;17.23;;;;;;;;;;5156887;27;20463;-59
2021/06/23 04:46:44;;;;;;;24.80;17.73;;;;;;;;;;5156661;27;20552;-56
2021/06/23 04:49:13;;;;;;;28.63;18.13;;;;;;;;;;5142228;27;20509;-54
2021/06/23 04:51:51;;;;;;;26.20;16.50;;;;;;;;;;5136399;28;20461;-59
2021/06/23 04:54:21;;;;;;;26.93;17.23;;;;;;;;;;5134620;28;20495;-54
2021/06/23 04:56:49;;;;;;;25.90;17.87;;;;;;;;;;5115170;28;20455;-59
2021/06/23 04:59:19;;;;;;;21.57;17.20;;;;;;;;;;5115921;28;20431;-61
2021/06/23 05:01:47;;;;;;;22.63;17.00;;;;;;;;;;5124725;28;20516;-55
2021/06/23 05:04:17;;;;;;;24.10;19.13;;;;;;;;;;5115885;28;20442;-54
2021/06/23 05:09:47;;;;;;;30.57;18.10;;;;;;;;;;5112232;28;20473;-56
2021/06/23 05:12:17;;;;;;;24.33;18.20;;;;;;;;;;5115546;28;20477;-54
2021/06/23 05:14:47;;;;;;;24.87;19.30;;;;;;;;;;5115702;28;20447;-59
2021/06/23 05:17:14;;;;;;;26.77;18.70;;;;;;;;;;5116117;28;20443;-58
2021/06/23 05:19:49;;;;;;;23.67;17.63;;;;;;;;;;5115178;28;20899;-59
2021/06/23 05:22:17;;;;;;;26.30;18.97;;;;;;;;;;5115510;28;20541;-57
2021/06/23 05:25:23;;;;;;;25.17;16.70;;;;;;;;;;5115592;28;20447;-56
2021/06/23 05:27:52;;;;;;;30.40;18.03;;;;;;;;;;5101254;28;20528;-63
2021/06/23 05:30:20;;;;;;;31.97;20.00;;;;;;;;;;5108270;28;20444;-57
2021/06/23 05:32:54;;;;;;;26.37;18.80;;;;;;;;;;5094561;28;20455;-56
2021/06/23 05:35:34;;;;;;;27.73;17.40;;;;;;;;;;5104734;28;20439;-56
2021/06/23 05:38:02;;;;;;;24.27;18.67;;;;;;;;;;5115855;28;20486;-56
2021/06/23 05:40:30;;;;;;;25.50;18.70;;;;;;;;;;5114974;28;20455;-54
2021/06/23 05:42:59;;;;;;;26.33;19.20;;;;;;;;;;5114836;28;20493;-57
2021/06/23 05:45:58;;;;;;;31.63;19.20;;;;;;;;;;5114400;28;20469;-59
2021/06/23 05:48:25;;;;;;;29.43;20.17;;;;;;;;;;5114899;28;20478;-59
2021/06/23 05:50:53;;;;;;;28.83;19.37;;;;;;;;;;5094785;28;20452;-58
2021/06/23 05:53:26;;;;;;;22.30;17.90;;;;;;;;;;5097029;28;20463;-55
2021/06/23 05:56:01;;;;;;;23.47;17.20;;;;;;;;;;5115441;28;20459;-59
2021/06/23 06:01:51;;;;;;;20.70;16.20;;;;;;;;;;5112230;28;20473;-59
2021/06/23 06:04:26;;;;;;;23.80;17.07;;;;;;;;;;5115912;28;20465;-61
2021/06/23 06:07:06;;;;;;;25.63;17.33;;;;;;;;;;5118272;28;20443;-61
2021/06/23 06:09:33;;;;;;;24.60;18.50;;;;;;;;;;5102467;28;20448;-58
2021/06/23 06:12:00;;;;;;;27.50;19.10;;;;;;;;;;5116308;28;20431;-52
2021/06/23 06:14:28;;;;;;;25.10;17.90;;;;;;;;;;5117928;28;20445;-57
2021/06/23 06:16:59;;;;;;;19.57;15.90;;;;;;;;;;5116984;28;20458;-52
2021/06/23 06:19:33;;;;;;;27.93;19.97;;;;;;;;;;5118497;28;20677;-57
2021/06/23 06:22:00;;;;;;;27.70;19.10;;;;;;;;;;5115808;28;20510;-58
2021/06/23 06:24:28;;;;;;;26.13;18.13;;;;;;;;;;5117908;28;20452;-54
2021/06/23 06:27:01;;;;;;;28.60;18.10;;;;;;;;;;5118073;28;20674;-58
2021/06/23 06:29:28;;;;;;;23.60;18.03;;;;;;;;;;5117287;28;20472;-55
2021/06/23 06:31:57;;;;;;;22.90;16.43;;;;;;;;;;5117242;28;20455;-59
2021/06/23 06:34:27;;;;;;;30.87;19.27;;;;;;;;;;5117142;28;20455;-59
2021/06/23 06:36:54;;;;;;;24.73;19.07;;;;;;;;;;5117415;28;20481;-56
2021/06/23 06:39:22;;;;;;;23.97;18.67;;;;;;;;;;5117885;28;20483;-58
2021/06/23 06:42:10;;;;;;;29.30;19.53;;;;;;;;;;5117577;28;20454;-57
2021/06/23 06:44:37;;;;;;;26.53;17.17;;;;;;;;;;5117301;28;20457;-61
2021/06/23 06:47:07;;;;;;;26.50;21.03;;;;;;;;;;5117903;28;20500;-57
2021/06/23 06:49:47;;;;;;;24.37;19.43;;;;;;;;;;5097026;28;20586;-56
2021/06/23 06:52:15;;;;;;;23.03;18.00;;;;;;;;;;5110973;28;20512;-61
2021/06/23 06:54:42;;;;;;;22.70;17.67;;;;;;;;;;5116901;28;20614;-56
2021/06/23 06:57:13;;;;;;;27.03;19.83;;;;;;;;;;5116829;28;20450;-56
2021/06/23 06:59:41;;;;;;;29.07;20.50;;;;;;;;;;5114806;28;20482;-57
2021/06/23 07:02:10;;;;;;;30.90;17.77;;;;;;;;;;5117461;28;20447;-58
2021/06/23 07:04:38;;;;;;;25.37;18.17;;;;;;;;;;5117033;28;20447;-53
2021/06/23 07:07:05;;;;;;;28.27;18.10;;;;;;;;;;5117320;28;20428;-57
2021/06/23 07:12:38;;;;;;;21.57;17.40;;;;;;;;;;5115446;28;20514;-58
2021/06/23 07:15:06;;;;;;;27.70;17.97;;;;;;;;;;5117435;28;20424;-58
2021/06/23 07:20:39;;;;;;;24.67;17.70;;;;;;;;;;5117481;28;20428;-57
2021/06/23 07:23:08;;;;;;;22.83;16.97;;;;;;;;;;5116373;28;20450;-57
2021/06/23 07:25:37;;;;;;;24.03;19.63;;;;;;;;;;5113025;28;20447;-57
2021/06/23 07:28:20;;;;;;;27.63;18.80;;;;;;;;;;5115680;28;20494;-54
2021/06/23 07:30:51;;;;;;;25.87;18.10;;;;;;;;;;5116887;28;20431;-58
2021/06/23 07:33:19;;;;;;;25.93;18.70;;;;;;;;;;5099377;28;20444;-55
2021/06/23 07:38:38;;;;;;;22.87;18.70;;;;;;;;;;5117462;28;20418;-52
2021/06/23 07:41:06;;;;;;;25.33;18.60;;;;;;;;;;5116196;28;20455;-53
2021/06/23 07:43:34;;;;;;;27.00;18.20;;;;;;;;;;5115603;28;20439;-58
2021/06/23 07:46:13;;;;;;;21.13;16.20;;;;;;;;;;5115706;28;20494;-58
2021/06/23 07:48:47;;;;;;;23.30;17.90;;;;;;;;;;5114736;28;20499;-58
2021/06/23 07:51:21;;;;;;;24.67;17.10;;;;;;;;;;5111088;28;20527;-61
2021/06/23 07:56:50;;;;;;;21.10;15.97;;;;;;;;;;5110934;28;20435;-60
2021/06/23 08:13:53;;;;;;;25.80;14.87;;;;;;;;;;5115357;28;20453;-54
2021/06/23 08:16:37;;;;;;;19.83;14.53;;;;;;;;;;5115929;28;20482;-56
2021/06/23 08:19:05;;;;;;;25.23;15.67;;;;;;;;;;5115299;28;20485;-55
2021/06/23 08:21:35;;;;;;;22.70;14.70;;;;;;;;;;5114493;28;20598;-56
2021/06/23 08:24:09;;;;;;;26.27;17.40;;;;;;;;;;5113770;28;20458;-52
2021/06/23 08:26:38;;;;;;;20.83;13.40;;;;;;;;;;5114068;28;20520;-59
2021/06/23 08:29:05;;;;;;;23.63;15.90;;;;;;;;;;5114470;28;20483;-55
2021/06/23 08:31:34;;;;;;;26.63;14.10;;;;;;;;;;5115243;28;20495;-59
2021/06/23 08:34:18;;;;;;;22.73;14.10;;;;;;;;;;5115638;28;20470;-59
2021/06/23 08:36:47;;;;;;;21.13;13.87;;;;;;;;;;5115550;28;20457;-57
2021/06/23 08:39:15;;;;;;;20.33;14.07;;;;;;;;;;5115366;28;20451;-59
2021/06/23 08:41:44;;;;;;;23.70;16.20;;;;;;;;;;5114461;28;20488;-58
2021/06/23 08:47:15;;;;;;;17.23;15.43;;;;;;;;;;5107154;28;20574;-59
2021/06/23 08:49:43;;;;;;;31.40;15.43;;;;;;;;;;5114405;28;20521;-56
2021/06/23 08:52:25;;;;;;;22.43;15.60;;;;;;;;;;5115439;28;20455;-60
2021/06/23 08:54:55;;;;;;;23.73;14.87;;;;;;;;;;5113046;28;20542;-56
2021/06/23 08:57:27;;;;;;;25.50;16.60;;;;;;;;;;5095222;28;20517;-56
2021/06/23 08:59:55;;;;;;;21.13;16.60;;;;;;;;;;5095434;28;20474;-61
2021/06/23 09:02:23;;;;;;;17.97;15.50;;;;;;;;;;5114709;28;20471;-58
2021/06/23 09:05:10;;;;;;;23.73;16.20;;;;;;;;;;5114337;28;20463;-55
2021/06/23 09:07:41;;;;;;;21.63;16.70;;;;;;;;;;5114464;28;20465;-60
2021/06/23 09:10:10;;;;;;;20.13;16.20;;;;;;;;;;5113191;28;20494;-57
2021/06/23 09:12:39;;;;;;;22.70;15.60;;;;;;;;;;5114121;28;20443;-52
2021/06/23 09:15:06;;;;;;;18.93;15.17;;;;;;;;;;5114756;28;20466;-54
2021/06/23 09:17:34;;;;;;;21.60;14.90;;;;;;;;;;5114250;28;20466;-53
2021/06/23 09:20:08;;;;;;;22.73;16.03;;;;;;;;;;5114154;28;20455;-52
2021/06/23 09:22:38;;;;;;;20.17;15.77;;;;;;;;;;5113569;28;20455;-56
2021/06/23 09:25:08;;;;;;;20.17;14.83;;;;;;;;;;5113624;28;20467;-58
2021/06/23 09:28:10;;;;;;;28.97;16.33;;;;;;;;;;5113662;28;20463;-54
2021/06/23 09:30:40;;;;;;;24.50;13.90;;;;;;;;;;5111566;28;20482;-54
2021/06/23 09:33:12;;;;;;;22.63;14.73;;;;;;;;;;5113606;28;20468;-55
2021/06/23 09:35:46;;;;;;;23.10;15.30;;;;;;;;;;5113573;28;20526;-52
2021/06/23 09:38:36;;;;;;;21.50;15.23;;;;;;;;;;5112619;28;20494;-55
2021/06/23 09:41:04;;;;;;;30.07;17.80;;;;;;;;;;5097626;28;20461;-56
2021/06/23 09:43:39;;;;;;;28.03;16.13;;;;;;;;;;5116715;28;20515;-53
2021/06/23 09:46:18;;;;;;;22.57;15.33;;;;;;;;;;5118588;28;20443;-59
2021/06/23 09:51:51;;;;;;;22.80;15.80;;;;;;;;;;5098183;28;20431;-56
2021/06/23 09:54:20;;;;;;;21.63;16.33;;;;;;;;;;5096917;28;20432;-55
2021/06/23 09:56:48;;;;;;;24.67;16.13;;;;;;;;;;5096695;28;20473;-59
2021/06/23 09:59:34;;;;;;;19.57;16.13;;;;;;;;;;5096902;28;20443;-58
2021/06/23 10:05:40;;;;;;;22.00;17.70;;;;;;;;;;5103079;28;20483;-57
2021/06/23 10:10:54;;;;;;;26.90;16.93;;;;;;;;;;5115970;28;20489;-54
2021/06/23 10:13:21;;;;;;;21.60;16.47;;;;;;;;;;5116490;28;20470;-59
2021/06/23 10:16:07;;;;;;;21.90;16.47;;;;;;;;;;5118061;28;20455;-56
2021/06/23 10:18:35;;;;;;;24.50;16.40;;;;;;;;;;5116273;28;20542;-59
2021/06/23 10:21:06;;;;;;;21.27;16.83;;;;;;;;;;5117582;28;20463;-54
2021/06/23 10:23:34;;;;;;;19.13;16.63;;;;;;;;;;5117929;28;20489;-54
2021/06/23 10:26:05;;;;;;;30.27;15.93;;;;;;;;;;5115149;28;20482;-58
2021/06/23 10:28:32;;;;;;;20.10;16.20;;;;;;;;;;5116726;28;20471;-60
2021/06/23 10:31:02;;;;;;;22.83;17.20;;;;;;;;;;5117137;28;20459;-57
2021/06/23 10:33:31;;;;;;;30.73;17.17;;;;;;;;;;5111746;28;20440;-61
2021/06/23 10:36:08;;;;;;;25.33;17.20;;;;;;;;;;5115127;28;20446;-57
2021/06/23 10:39:02;;;;;;;25.30;15.40;;;;;;;;;;5117261;28;20463;-54
2021/06/23 10:41:31;;;;;;;27.40;17.43;;;;;;;;;;5117265;28;20645;-52
2021/06/23 10:44:17;;;;;;;25.20;17.37;;;;;;;;;;5115705;28;20447;-59
2021/06/23 10:46:45;;;;;;;24.83;16.60;;;;;;;;;;5116867;28;20443;-55
2021/06/23 10:49:23;;;;;;;24.53;16.77;;;;;;;;;;5117550;28;20474;-53
2021/06/23 10:52:03;;;;;;;32.90;17.67;;;;;;;;;;5094746;28;20561;-61
2021/06/23 10:54:41;;;;;;;21.80;17.23;;;;;;;;;;5077401;28;20455;-54
2021/06/23 10:57:35;;;;;;;24.80;16.80;;;;;;;;;;5077547;28;20453;-56
2021/06/23 11:00:14;;;;;;;19.93;16.33;;;;;;;;;;5084506;28;20464;-61
2021/06/23 11:02:44;;;;;;;32.93;17.63;;;;;;;;;;5097232;28;20480;-57
2021/06/23 11:05:43;;;;;;;21.10;17.00;;;;;;;;;;5097911;28;20443;-57
2021/06/23 11:11:29;;;;;;;21.73;17.07;;;;;;;;;;5116425;28;20506;-57
2021/06/23 11:14:15;;;;;;;23.43;19.10;;;;;;;;;;5115468;28;20483;-56
2021/06/23 11:16:44;;;;;;;22.13;17.23;;;;;;;;;;5116612;28;20466;-56
2021/06/23 11:19:12;;;;;;;20.67;16.30;;;;;;;;;;5116249;28;20481;-61
2021/06/23 11:21:39;;;;;;;21.53;16.20;;;;;;;;;;5117002;28;20428;-58
2021/06/23 11:24:20;;;;;;;23.30;17.53;;;;;;;;;;5116763;28;20485;-53
2021/06/23 11:26:53;;;;;;;21.17;16.67;;;;;;;;;;5116887;28;20461;-60
2021/06/23 11:29:48;;;;;;;20.73;12.80;;;;;;;;;;5117753;28;20483;-52
2021/06/23 11:34:59;;;;;;;19.27;13.53;;;;;;;;;;5114338;28;20489;-57
2021/06/23 11:37:49;;;;;;;21.10;18.57;;;;;;;;;;5110096;28;20482;-57
2021/06/23 11:40:21;;;;;;;22.17;16.30;;;;;;;;;;5095519;28;20468;-56
2021/06/23 11:42:51;;;;;;;28.03;20.00;;;;;;;;;;5096215;28;20471;-59
2021/06/23 11:45:21;;;;;;;24.60;18.70;;;;;;;;;;5095329;28;20483;-56
2021/06/23 11:48:02;;;;;;;24.87;17.20;;;;;;;;;;5095748;28;20453;-60
2021/06/23 11:50:30;;;;;;;24.20;17.17;;;;;;;;;;5094837;28;20472;-53
2021/06/23 11:53:00;;;;;;;19.67;15.90;;;;;;;;;;5094840;28;20486;-56
2021/06/23 11:55:32;;;;;;;18.03;15.47;;;;;;;;;;5095620;28;20467;-57
2021/06/23 11:58:02;;;;;;;22.83;16.23;;;;;;;;;;5093397;28;20484;-63
2021/06/23 12:00:30;;;;;;;25.07;18.73;;;;;;;;;;5095237;28;20440;-60
2021/06/23 12:06:03;;;;;;;23.03;17.97;;;;;;;;;;5113107;28;20465;-56
2021/06/23 12:08:30;;;;;;;20.63;17.13;;;;;;;;;;5114882;28;20481;-55
2021/06/23 12:10:59;;;;;;;21.17;17.30;;;;;;;;;;5115901;28;20556;-59
2021/06/23 12:13:27;;;;;;;25.77;17.47;;;;;;;;;;5114148;28;20443;-61
2021/06/23 12:16:21;;;;;;;19.87;16.80;;;;;;;;;;5101736;28;20455;-61
2021/06/23 12:18:49;;;;;;;21.33;15.77;;;;;;;;;;5115632;28;20451;-57
2021/06/23 12:21:22;;;;;;;22.30;15.47;;;;;;;;;;5116193;28;20479;-60
2021/06/23 12:24:01;;;;;;;21.30;17.30;;;;;;;;;;5115784;28;20533;-59
2021/06/23 12:26:28;;;;;;;18.53;15.93;;;;;;;;;;5115848;28;20435;-58
2021/06/23 12:28:56;;;;;;;22.73;16.40;;;;;;;;;;5115840;28;20451;-56
2021/06/23 12:31:38;;;;;;;26.87;16.53;;;;;;;;;;5115817;28;20505;-58
2021/06/23 12:34:08;;;;;;;24.53;16.80;;;;;;;;;;5115421;28;20570;-59
2021/06/23 12:36:42;;;;;;;19.13;15.53;;;;;;;;;;5115483;28;20478;-54
2021/06/23 12:42:17;;;;;;;24.37;15.80;;;;;;;;;;5110130;28;20403;-56
2021/06/23 12:44:48;;;;;;;19.90;14.97;;;;;;;;;;5115114;28;20479;-58
2021/06/23 12:47:34;;;;;;;23.33;15.47;;;;;;;;;;5111379;28;20580;-54
2021/06/23 12:50:03;;;;;;;21.37;13.57;;;;;;;;;;5105129;28;20552;-58
2021/06/23 12:52:31;;;;;;;19.90;16.00;;;;;;;;;;5115410;28;20443;-54
2021/06/23 12:55:14;;;;;;;18.60;14.57;;;;;;;;;;5114233;28;20436;-61
2021/06/23 12:57:42;;;;;;;22.43;15.23;;;;;;;;;;5111416;28;20468;-61
2021/06/23 13:00:16;;;;;;;18.60;13.77;;;;;;;;;;5102169;28;20448;-57
2021/06/23 13:03:10;;;;;;;21.10;13.53;;;;;;;;;;5097528;28;20443;-55
2021/06/23 13:05:38;;;;;;;23.40;16.50;;;;;;;;;;5113798;28;20490;-55
2021/06/23 13:08:17;;;;;;;22.10;16.60;;;;;;;;;;5115878;28;20450;-55
2021/06/23 13:11:05;;;;;;;16.30;14.27;;;;;;;;;;5115513;28;20542;-56
2021/06/23 13:13:33;;;;;;;21.53;12.70;;;;;;;;;;5130775;28;20543;-54
2021/06/23 13:16:02;;;;;;;21.00;14.57;;;;;;;;;;5134974;28;20478;-62
2021/06/23 13:19:04;;;;;;;20.97;14.63;;;;;;;;;;5114904;28;20473;-64
2021/06/23 13:21:33;;;;;;;27.13;15.53;;;;;;;;;;5112628;28;20486;-55
2021/06/23 13:24:04;;;;;;;20.13;14.90;;;;;;;;;;5115633;28;20550;-52
2021/06/23 13:27:04;;;;;;;47.97;17.37;;;;;;;;;;5126884;28;20513;-57
2021/06/23 13:29:31;;;;;;;23.70;14.47;;;;;;;;;;5112676;28;20566;-53
2021/06/23 13:32:04;;;;;;;24.50;15.47;;;;;;;;;;5114863;28;20483;-56
2021/06/23 13:34:42;;;;;;;24.53;14.40;;;;;;;;;;5115156;28;20456;-57
2021/06/23 13:37:10;;;;;;;23.23;15.60;;;;;;;;;;5110963;28;20509;-57
2021/06/23 13:39:42;;;;;;;20.60;14.30;;;;;;;;;;5114364;28;20459;-61
2021/06/23 13:42:09;;;;;;;19.67;14.73;;;;;;;;;;5115125;28;20487;-55
2021/06/23 13:44:38;;;;;;;22.37;15.30;;;;;;;;;;5115340;28;20454;-57
2021/06/23 13:47:05;;;;;;;24.87;14.80;;;;;;;;;;5114330;28;20462;-59
2021/06/23 13:49:41;;;;;;;21.53;14.70;;;;;;;;;;5114341;28;20475;-55
2021/06/23 13:52:16;;;;;;;19.60;13.80;;;;;;;;;;5101792;28;20481;-52
2021/06/23 13:54:48;;;;;;;17.93;12.10;;;;;;;;;;5115367;28;20455;-59
2021/06/23 13:57:31;;;;;;;23.07;14.67;;;;;;;;;;5098630;28;20451;-58
2021/06/23 14:00:00;;;;;;;24.17;13.67;;;;;;;;;;5112842;28;20481;-57
2021/06/23 14:02:49;;;;;;;17.93;13.73;;;;;;;;;;5115035;28;20457;-54
2021/06/23 14:05:19;;;;;;;25.13;14.70;;;;;;;;;;5114415;28;20635;-58
2021/06/23 14:08:00;;;;;;;29.53;14.70;;;;;;;;;;5095492;28;20507;-60
2021/06/23 14:10:51;;;;;;;22.23;13.80;;;;;;;;;;5094338;28;20476;-54
2021/06/23 14:13:27;;;;;;;22.60;13.07;;;;;;;;;;5098812;28;20485;-57
2021/06/23 14:16:01;;;;;;;15.93;12.50;;;;;;;;;;5114426;28;20443;-60
2021/06/23 14:18:50;;;;;;;25.87;16.03;;;;;;;;;;5108694;28;20494;-59
2021/06/23 14:21:37;;;;;;;16.30;14.13;;;;;;;;;;5111507;28;20567;-59
2021/06/23 14:24:06;;;;;;;21.23;14.70;;;;;;;;;;5114901;28;20450;-57
2021/06/23 14:29:28;;;;;;;23.53;13.00;;;;;;;;;;5109416;28;20653;-58
2021/06/23 14:31:56;;;;;;;22.03;13.40;;;;;;;;;;5118177;28;20473;-56
2021/06/23 14:34:25;;;;;;;16.30;11.77;;;;;;;;;;5118034;28;20485;-54
2021/06/23 14:36:53;;;;;;;17.40;12.50;;;;;;;;;;5097224;28;20467;-56
2021/06/23 14:39:27;;;;;;;19.23;14.13;;;;;;;;;;5110499;28;20443;-56
2021/06/23 14:41:54;;;;;;;23.80;13.60;;;;;;;;;;5116270;28;20467;-52
2021/06/23 14:44:25;;;;;;;19.40;10.83;;;;;;;;;;5117159;28;20436;-58
2021/06/23 14:47:30;;;;;;;22.07;14.30;;;;;;;;;;5117113;28;20452;-56
2021/06/23 14:50:20;;;;;;;21.00;15.37;;;;;;;;;;5114800;28;20524;-61
2021/06/23 14:52:54;;;;;;;23.93;17.20;;;;;;;;;;5116991;28;20511;-56
2021/06/23 14:58:09;;;;;;;22.00;15.53;;;;;;;;;;5124905;28;20510;-54
2021/06/23 15:00:47;;;;;;;20.47;13.23;;;;;;;;;;5117228;28;20427;-62
2021/06/23 15:03:16;;;;;;;19.27;15.13;;;;;;;;;;5111989;28;20435;-55
2021/06/23 15:06:13;;;;;;;19.80;15.93;;;;;;;;;;5112940;28;20451;-59
2021/06/23 15:08:44;;;;;;;18.30;14.63;;;;;;;;;;5097614;28;20466;-55
2021/06/23 15:11:26;;;;;;;17.33;15.03;;;;;;;;;;5108281;28;20467;-59
2021/06/23 15:16:50;;;;;;;24.57;15.90;;;;;;;;;;5107346;28;20483;-53
2021/06/23 15:19:24;;;;;;;20.83;16.70;;;;;;;;;;5116648;28;20638;-60
2021/06/23 15:21:52;;;;;;;18.47;14.10;;;;;;;;;;5126716;28;20454;-59
2021/06/23 15:24:21;;;;;;;20.50;15.47;;;;;;;;;;5132486;28;20459;-59
2021/06/23 15:26:49;;;;;;;22.70;15.50;;;;;;;;;;5113880;28;20451;-56
2021/06/23 15:29:20;;;;;;;23.87;16.57;;;;;;;;;;5111791;28;20450;-56
2021/06/23 15:31:47;;;;;;;24.50;16.70;;;;;;;;;;5108811;28;20767;-57
2021/06/23 15:34:15;;;;;;;28.20;16.27;;;;;;;;;;5080974;28;20452;-57
2021/06/23 15:36:43;;;;;;;28.83;15.13;;;;;;;;;;5098295;28;20499;-60
2021/06/23 15:39:13;;;;;;;21.23;15.17;;;;;;;;;;5117119;28;20443;-62
2021/06/23 15:41:43;;;;;;;23.57;14.30;;;;;;;;;;5116852;28;20465;-60
2021/06/23 15:44:10;;;;;;;19.63;13.97;;;;;;;;;;5116745;28;20463;-64
2021/06/23 15:46:45;;;;;;;20.17;13.57;;;;;;;;;;5117367;28;20450;-57
2021/06/23 15:49:15;;;;;;;20.73;12.80;;;;;;;;;;5103487;28;20505;-60
2021/06/23 15:51:43;;;;;;;20.73;14.33;;;;;;;;;;5105983;28;20504;-61
2021/06/23 15:54:12;;;;;;;27.00;19.67;;;;;;;;;;5112972;28;20443;-60
2021/06/23 15:59:53;;;;;;;26.30;14.17;;;;;;;;;;5094669;28;20482;-58